Latest Weather Observations for Keith West

IDS60801

Issued at 6:31 am CDT Thursday 8 December 2016 (issued every 30 minutes, with the page automatically refreshed every 10 minutes)

About weather observations | Map of weather stations | Latest weather observations for SA | Other Formats
Station Details ID: 025557 Name: MUNKORA Lat: -36.11 Lon: 140.33 Height: 27.0 m
Data from the previous 72 hours. | See also: Recent months at Keith West
Date/Time
CDT
Temp
°C
App
Temp
°C
Dew
Point
°C
Rel
Hum
%
Delta-T
°C
Wind Press
QNH
hPa
Press
MSL
hPa
Rain since
9am
mm
Dir  Spd
km/h
Gust
km/h
Spd
kts
Gust
kts
08/06:00am 14.5 7.9 10.1 75 2.3 W 35 48 19 26 1001.5 1001.4 10.2
08/05:30am 15.1 9.0 11.7 80 1.8 W 35 44 19 24 1001.0 1000.9 10.2
08/05:00am 15.5 9.5 13.2 86 1.3 W 37 57 20 31 1000.4 1000.3 10.2
08/04:31am 17.1 12.0 14.9 87 1.3 W 35 54 19 29 999.0 998.9 10.2
08/04:30am 17.2 11.8 15.0 87 1.3 W 37 56 20 30 998.9 998.8 10.2
08/04:14am 19.0 14.4 16.0 83 1.8 NW 35 59 19 32 998.7 998.6 10.2
08/04:13am 19.7 15.8 17.8 89 1.2 NW 35 59 19 32 998.6 998.5 10.2
08/04:00am 19.7 16.8 18.0 90 1.0 NW 30 46 16 25 998.0 997.9 10.2
08/03:30am 19.3 16.3 17.8 91 0.9 NNW 30 39 16 21 997.7 997.6 10.0
08/03:00am 19.0 17.0 17.3 90 1.0 NNW 24 35 13 19 998.5 998.4 8.0
08/02:30am 19.1 17.8 16.9 87 1.3 NW 19 28 10 15 999.1 999.0 6.2
08/02:00am 20.1 18.2 15.7 76 2.6 WNW 20 28 11 15 999.1 999.0 4.6
08/01:30am 20.8 19.5 14.9 69 3.5 NW 15 22 8 12 997.7 997.6 3.4
08/01:00am 20.8 19.2 15.1 70 3.4 NNE 17 26 9 14 996.6 996.5 3.0
08/12:30am 19.9 17.7 14.5 71 3.2 N 19 24 10 13 998.3 998.2 3.0
08/12:00am 19.4 18.4 15.5 78 2.3 N 15 26 8 14 998.8 998.7 3.0
 
Date/Time
CDT
Temp
°C
App
Temp
°C
Dew
Point
°C
Rel
Hum
%
Delta-T
°C
Wind Press
QNH
hPa
Press
MSL
hPa
Rain since
9am
mm
Dir  Spd
km/h
Gust
km/h
Spd
kts
Gust
kts
07/11:39pm 20.6 17.9 14.7 69 3.5 WSW 22 43 12 23 1000.4 1000.3 1.2
07/11:30pm 21.1 19.1 14.0 64 4.1 NW 17 24 9 13 1000.7 1000.6 0.8
07/11:24pm 22.4 21.3 13.2 56 5.3 NNW 11 24 6 13 1000.9 1000.8 0.4
07/11:00pm 22.6 20.2 12.8 54 5.6 NNE 17 26 9 14 998.9 998.8 0.4
07/10:30pm 26.2 22.4 9.1 34 9.4 NNE 19 28 10 15 999.5 999.4 0.0
07/10:00pm 25.7 22.8 9.5 36 8.9 NNE 15 19 8 10 1000.5 1000.4 0.0
07/09:30pm 25.4 23.3 9.7 37 8.7 NNE 11 15 6 8 1001.5 1001.4 0.0
07/09:00pm 23.7 22.7 11.1 45 7.1 NE 7 9 4 5 1002.1 1002.0 0.0
07/08:30pm 23.0 22.1 10.8 46 6.8 NE 6 6 3 3 1002.7 1002.6 0.0
07/08:00pm 23.7 22.9 9.7 41 7.6 WNW 4 6 2 3 1003.2 1003.1 0.0
07/07:30pm 26.5 25.2 9.8 35 9.3 WNW 7 9 4 5 1003.6 1003.5 0.0
07/07:00pm 28.6 25.7 9.8 31 10.5 W 15 22 8 12 1003.9 1003.8 0.0
07/06:30pm 29.3 24.2 7.8 26 11.7 NNW 24 35 13 19 1004.4 1004.3 0.0
07/06:00pm 29.6 26.3 8.1 26 11.8 NNW 15 20 8 11 1004.8 1004.7 0.0
07/05:30pm 29.6 25.4 7.5 25 12.0 NNW 19 26 10 14 1004.9 1004.8 0.0
07/05:00pm 30.6 27.2 7.7 24 12.5 N 15 24 8 13 1005.6 1005.5 0.0
07/04:30pm 29.2 24.8 7.2 25 11.9 NNW 20 26 11 14 1006.3 1006.2 0.0
07/04:00pm 29.7 25.8 7.0 24 12.2 N 17 28 9 15 1006.9 1006.8 0.0
07/03:30pm 30.1 26.5 6.7 23 12.6 N 15 28 8 15 1007.7 1007.6 0.0
07/03:00pm 30.0 25.6 7.2 24 12.3 N 20 32 11 17 1008.7 1008.6 0.0
07/02:30pm 29.8 25.3 7.1 24 12.2 NNW 20 35 11 19 1009.4 1009.3 0.0
07/02:00pm 28.9 24.0 6.9 25 11.8 NNW 22 37 12 20 1010.1 1010.0 0.0
07/01:30pm 28.6 24.2 6.7 25 11.7 NW 19 32 10 17 1010.8 1010.7 0.0
07/01:00pm 26.9 22.3 5.8 26 10.9 NNW 19 32 10 17 1011.5 1011.4 0.0
07/12:30pm 27.3 22.6 6.1 26 11.1 NNW 20 33 11 18 1012.0 1011.9 0.0
07/12:00pm 25.6 21.0 3.6 24 10.9 NNW 17 33 9 18 1012.8 1012.7 0.0
07/11:30am 24.8 20.7 2.3 23 10.8 NNW 13 26 7 14 1013.3 1013.2 0.0
07/11:00am 24.0 20.8 3.3 26 10.1 NNW 9 17 5 9 1013.7 1013.6 0.0
07/10:30am 22.6 19.5 3.7 29 9.2 NNE 9 17 5 9 1014.1 1014.0 0.0
07/10:00am 20.9 17.2 4.5 34 8.0 NNE 13 20 7 11 1014.5 1014.4 0.0
07/09:30am 20.0 16.7 6.4 41 6.8 NNE 13 19 7 10 1014.9 1014.8 0.0
07/09:00am 18.6 15.3 6.4 45 6.1 NE 13 20 7 11 1015.2 1015.1 0.0
07/08:30am 16.6 13.8 7.0 53 4.8 NE 11 17 6 9 1015.2 1015.1 0.0
07/08:00am 15.0 12.7 7.5 61 3.7 ENE 9 13 5 7 1015.3 1015.2 0.0
07/07:30am 12.4 10.3 8.1 75 2.1 ENE 9 13 5 7 1015.0 1014.9 0.0
07/07:22am 11.6 9.9 8.3 80 1.6 ENE 7 13 4 7 1015.0 1014.9 0.0
07/07:00am 6.6 5.6 5.4 92 0.5 CALM 0 2 0 1 1014.9 1014.8 0.0
07/06:30am 4.6 2.4 3.6 93 0.4 E 4 4 2 2 1014.6 1014.5 0.0
07/06:00am 3.6 0.9 2.7 94 0.4 ESE 6 6 3 3 1014.7 1014.6 0.0
07/05:30am 2.4 -0.2 1.2 92 0.5 SE 4 4 2 2 1014.8 1014.7 0.0
07/05:00am 2.7 0.2 1.7 93 0.4 NE 4 4 2 2 1014.5 1014.4 0.0
07/04:30am 3.3 1.7 2.3 93 0.4 CALM 0 2 0 1 1014.8 1014.7 0.0
07/04:00am 3.3 1.7 2.3 93 0.4 CALM 0 2 0 1 1014.7 1014.6 0.0
07/03:30am 3.3 0.8 1.8 90 0.6 NE 4 6 2 3 1014.7 1014.6 0.0
07/03:00am 3.8 2.1 1.7 86 0.8 CALM 0 0 0 0 1014.7 1014.6 0.0
07/02:30am 4.0 2.3 1.9 86 0.8 CALM 0 0 0 0 1014.8 1014.7 0.0
07/02:00am 5.5 4.1 3.8 89 0.7 CALM 0 0 0 0 1015.0 1014.9 0.0
07/01:30am 5.1 3.5 2.6 84 1.0 CALM 0 0 0 0 1015.5 1015.4 0.0
07/01:00am 5.3 3.7 2.7 83 1.1 CALM 0 2 0 1 1015.8 1015.7 0.0
07/12:30am 8.1 6.2 6.6 90 0.7 SE 6 7 3 4 1015.7 1015.6 0.0
07/12:00am 6.9 4.9 4.4 84 1.1 ESE 4 6 2 3 1015.9 1015.8 0.0
 
Date/Time
CDT
Temp
°C
App
Temp
°C
Dew
Point
°C
Rel
Hum
%
Delta-T
°C
Wind Press
QNH
hPa
Press
MSL
hPa
Rain since
9am
mm
Dir  Spd
km/h
Gust
km/h
Spd
kts
Gust
kts
06/11:30pm 7.7 5.8 5.0 83 1.2 ESE 4 9 2 5 1016.2 1016.1 0.0
06/11:00pm 9.5 7.5 6.2 80 1.5 SSW 6 7 3 4 1016.3 1016.2 0.0
06/10:30pm 10.8 8.6 6.4 74 2.1 SW 7 9 4 5 1016.5 1016.4 0.0
06/10:00pm 12.0 9.1 6.7 70 2.5 SW 11 17 6 9 1016.6 1016.5 0.0
06/09:30pm 11.8 8.9 6.3 69 2.6 SW 11 15 6 8 1016.5 1016.4 0.0
06/09:00pm 12.5 9.4 5.4 62 3.3 SW 11 13 6 7 1016.4 1016.3 0.0
06/08:30pm 14.3 10.9 5.7 56 4.1 SW 13 17 7 9 1016.1 1016.0 0.0
06/08:00pm 16.2 13.1 5.5 49 5.1 SW 11 17 6 9 1015.7 1015.6 0.0
06/07:30pm 18.2 14.6 5.1 42 6.3 SW 13 17 7 9 1015.5 1015.4 0.0
06/07:00pm 19.2 14.5 5.3 40 6.8 WSW 19 24 10 13 1015.3 1015.2 0.0
06/06:30pm 20.3 16.1 5.9 39 7.2 SW 17 24 9 13 1014.9 1014.8 0.0
06/06:00pm 20.9 16.2 5.3 36 7.7 WSW 19 26 10 14 1014.7 1014.6 0.0
06/05:30pm 21.4 16.6 4.5 33 8.2 WSW 19 28 10 15 1014.6 1014.5 0.0
06/05:00pm 21.5 16.5 4.6 33 8.3 WSW 20 32 11 17 1014.6 1014.5 0.0
06/04:30pm 22.4 17.9 4.0 30 9.0 WSW 17 32 9 17 1014.6 1014.5 0.0
06/04:00pm 22.2 17.9 3.3 29 9.1 WSW 15 24 8 13 1014.8 1014.7 0.0
06/03:30pm 23.4 18.8 3.9 28 9.5 SW 17 24 9 13 1014.9 1014.8 0.0
06/03:00pm 22.5 17.8 3.1 28 9.3 SW 17 37 9 20 1014.8 1014.7 0.0
06/02:30pm 22.4 18.1 3.0 28 9.3 WSW 15 32 8 17 1014.7 1014.6 0.0
06/02:00pm 22.8 19.3 3.4 28 9.4 SW 11 22 6 12 1014.9 1014.8 0.0
06/01:30pm 22.4 18.6 4.0 30 9.0 SSW 13 24 7 13 1014.9 1014.8 0.0
06/01:00pm 21.8 17.6 3.9 31 8.7 SSW 15 28 8 15 1015.3 1015.2 0.0
06/12:30pm 21.1 17.2 3.3 31 8.5 W 13 22 7 12 1015.7 1015.6 0.0
06/12:00pm 20.2 16.2 4.7 36 7.5 SW 15 24 8 13 1015.6 1015.5 0.0
06/11:30am 18.8 14.7 4.6 39 6.8 S 15 26 8 14 1015.8 1015.7 0.0
06/11:00am 19.4 15.4 4.7 38 7.1 SSW 15 24 8 13 1015.9 1015.8 0.0
06/10:30am 18.6 14.0 5.8 43 6.3 SSW 19 32 10 17 1016.2 1016.1 0.0
06/10:00am 17.9 14.2 6.1 46 5.8 SSW 15 26 8 14 1016.3 1016.2 0.0
06/09:30am 17.0 13.7 6.5 50 5.2 S 13 22 7 12 1016.6 1016.5 0.0
06/09:00am 15.3 11.9 5.8 53 4.5 S 13 20 7 11 1016.4 1016.3 -
06/08:30am 15.1 12.3 6.9 58 4.0 S 11 17 6 9 1016.3 1016.2 -
06/08:00am 12.1 11.2 7.6 74 2.2 S 2 4 1 2 1016.0 1015.9 -
06/07:30am 10.4 9.0 7.1 80 1.6 S 4 6 2 3 1015.9 1015.8 -
06/07:00am 9.3 8.2 6.9 85 1.1 E 2 4 1 2 1015.4 1015.3 -
06/06:30am 8.3 7.0 5.8 84 1.1 S 2 4 1 2 1015.1 1015.0 -
06/06:00am 8.4 6.1 5.9 84 1.1 SSW 7 9 4 5 1014.8 1014.7 -
06/05:30am 8.9 6.7 6.2 83 1.2 SSW 7 7 4 4 1014.8 1014.7 -
06/05:00am 9.8 6.9 6.5 80 1.5 SSW 11 13 6 7 1014.4 1014.3 -
06/04:30am 9.9 7.4 6.6 80 1.5 SSW 9 13 5 7 1014.1 1014.0 -
06/04:00am 10.0 7.5 6.7 80 1.5 SW 9 13 5 7 1013.6 1013.5 -
06/03:30am 9.8 7.3 6.7 81 1.5 SW 9 11 5 6 1013.5 1013.4 -
06/03:00am 9.7 7.6 6.6 81 1.4 SW 7 9 4 5 1013.0 1012.9 0.0
06/02:30am 9.5 7.3 6.4 81 1.4 WSW 7 9 4 5 1013.7 1013.6 -
06/02:00am 9.8 7.6 6.3 79 1.6 SW 7 9 4 5 1013.9 1013.8 -
06/01:30am 10.7 8.6 6.8 77 1.8 SSW 7 9 4 5 1013.8 1013.7 -
06/01:00am 10.9 8.8 6.6 75 2.0 SSW 7 9 4 5 1013.7 1013.6 -
06/12:30am 11.5 9.1 6.8 73 2.2 SSW 9 13 5 7 1013.9 1013.8 -
06/12:00am 12.3 9.9 7.0 70 2.5 SW 9 15 5 8 1014.6 1014.5 -
 
Date/Time
CDT
Temp
°C
App
Temp
°C
Dew
Point
°C
Rel
Hum
%
Delta-T
°C
Wind Press
QNH
hPa
Press
MSL
hPa
Rain since
9am
mm
Dir  Spd
km/h
Gust
km/h
Spd
kts
Gust
kts
05/11:30pm 13.1 10.7 6.9 66 3.0 SSW 9 13 5 7 1014.5 1014.4 -
05/11:00pm 13.2 10.9 7.4 68 2.8 SW 9 13 5 7 1014.8 1014.7 -
05/10:30pm 12.7 11.1 7.8 72 2.4 SW 6 9 3 5 1014.6 1014.5 -
05/10:00pm 13.3 11.1 8.0 70 2.6 SW 9 11 5 6 1014.0 1013.9 -
05/09:30pm 13.8 11.3 8.2 69 2.8 SW 11 17 6 9 1013.9 1013.8 -
05/09:00pm 14.0 11.9 8.2 68 2.9 WSW 9 13 5 7 1013.7 1013.6 0.0
05/08:30pm 14.7 12.2 8.0 64 3.3 W 11 15 6 8 1013.4 1013.3 -
05/08:00pm 15.5 12.6 8.0 61 3.8 WSW 13 19 7 10 1013.7 1013.6 -
05/07:30pm 15.9 12.3 8.2 60 3.9 WSW 17 22 9 12 1013.8 1013.7 -
05/07:00pm 16.5 12.3 8.2 58 4.2 WSW 20 28 11 15 1013.8 1013.7 -
05/06:30pm 17.7 12.8 8.3 54 4.8 WSW 24 33 13 18 1013.2 1013.1 -
05/06:00pm 18.7 13.6 7.8 49 5.6 SW 24 30 13 16 1012.2 1012.1 -
05/05:30pm 19.5 14.8 7.6 46 6.1 SW 22 28 12 15 1012.4 1012.3 -
05/05:00pm 21.2 16.9 7.8 42 7.0 SW 20 35 11 19 1012.9 1012.8 -
05/04:30pm 22.7 19.4 6.5 35 8.3 SW 13 22 7 12 1013.3 1013.2 -
05/04:00pm 22.4 18.6 5.8 34 8.4 W 15 24 8 13 1013.1 1013.0 -
05/03:30pm 23.3 19.1 5.7 32 8.9 WSW 17 32 9 17 1012.9 1012.8 -
05/03:00pm 23.0 19.2 5.9 33 8.7 WSW 15 22 8 12 1012.8 1012.7 -
05/02:30pm 22.6 19.1 5.5 33 8.6 SW 13 22 7 12 1012.7 1012.6 -
05/02:00pm 21.8 18.0 5.7 35 8.1 SW 15 26 8 14 1012.6 1012.5 -
05/01:30pm 21.8 17.5 5.3 34 8.2 SW 17 28 9 15 1012.8 1012.7 -
05/01:00pm 22.6 18.9 6.4 35 8.3 W 15 26 8 14 1013.1 1013.0 -
05/12:30pm 21.8 17.6 5.7 35 8.1 SW 17 28 9 15 1013.3 1013.2 -
05/12:00pm 20.1 16.0 6.1 40 7.0 WSW 17 30 9 16 1013.4 1013.3 -
05/11:30am 20.0 15.9 6.4 41 6.8 WSW 17 24 9 13 1014.1 1014.0 -
05/11:00am 20.2 17.1 7.2 43 6.6 SW 13 26 7 14 1013.8 1013.7 -
05/10:30am 19.2 15.7 7.0 45 6.2 SSW 15 26 8 14 1013.5 1013.4 -

Other Formats:

Comma delimited format used in spreadsheet applications
http://www.bom.gov.au/fwo/IDS60801/IDS60801.95815.axf

JavaScript Object Notation format (JSON) in row-major order
http://www.bom.gov.au/fwo/IDS60801/IDS60801.95815.json